sensor_id;sensor_type;location;lat;lon;timestamp;P1;durP1;ratioP1;P2;durP2;ratioP2
12248;SDS011;6187;50.778;6.142;2023-07-30T00:02:19;1.97;;;1.60;;
12248;SDS011;6187;50.778;6.142;2023-07-30T00:04:48;3.20;;;2.07;;
12248;SDS011;6187;50.778;6.142;2023-07-30T00:07:16;2.17;;;1.70;;
12248;SDS011;6187;50.778;6.142;2023-07-30T00:09:46;2.30;;;1.80;;
12248;SDS011;6187;50.778;6.142;2023-07-30T00:12:15;2.23;;;1.67;;
12248;SDS011;6187;50.778;6.142;2023-07-30T00:14:43;1.90;;;1.70;;
12248;SDS011;6187;50.778;6.142;2023-07-30T00:17:12;1.73;;;1.50;;
12248;SDS011;6187;50.778;6.142;2023-07-30T00:19:41;2.87;;;1.80;;
12248;SDS011;6187;50.778;6.142;2023-07-30T00:22:09;1.60;;;1.50;;
12248;SDS011;6187;50.778;6.142;2023-07-30T00:24:38;1.90;;;1.40;;
12248;SDS011;6187;50.778;6.142;2023-07-30T00:27:08;3.33;;;1.90;;
12248;SDS011;6187;50.778;6.142;2023-07-30T00:29:36;2.17;;;1.77;;
12248;SDS011;6187;50.778;6.142;2023-07-30T00:32:05;1.83;;;1.40;;
12248;SDS011;6187;50.778;6.142;2023-07-30T00:34:34;2.13;;;1.67;;
12248;SDS011;6187;50.778;6.142;2023-07-30T00:37:02;2.30;;;1.60;;
12248;SDS011;6187;50.778;6.142;2023-07-30T00:39:31;1.70;;;1.60;;
12248;SDS011;6187;50.778;6.142;2023-07-30T00:42:00;2.73;;;1.60;;
12248;SDS011;6187;50.778;6.142;2023-07-30T00:44:30;2.77;;;2.47;;
12248;SDS011;6187;50.778;6.142;2023-07-30T00:46:58;1.93;;;1.73;;
12248;SDS011;6187;50.778;6.142;2023-07-30T00:49:27;1.73;;;1.50;;
12248;SDS011;6187;50.778;6.142;2023-07-30T00:51:55;1.73;;;1.63;;
12248;SDS011;6187;50.778;6.142;2023-07-30T00:54:24;3.00;;;1.80;;
12248;SDS011;6187;50.778;6.142;2023-07-30T00:56:53;2.40;;;1.60;;
12248;SDS011;6187;50.778;6.142;2023-07-30T00:59:22;2.70;;;1.73;;
12248;SDS011;6187;50.778;6.142;2023-07-30T01:01:52;1.90;;;1.70;;
12248;SDS011;6187;50.778;6.142;2023-07-30T01:04:20;2.50;;;1.90;;
12248;SDS011;6187;50.778;6.142;2023-07-30T01:06:49;1.77;;;1.67;;
12248;SDS011;6187;50.778;6.142;2023-07-30T01:09:18;2.23;;;1.63;;
12248;SDS011;6187;50.778;6.142;2023-07-30T01:11:47;2.10;;;1.70;;
12248;SDS011;6187;50.778;6.142;2023-07-30T01:14:16;3.80;;;1.80;;
12248;SDS011;6187;50.778;6.142;2023-07-30T01:16:46;2.50;;;1.60;;
12248;SDS011;6187;50.778;6.142;2023-07-30T01:19:16;2.83;;;1.70;;
12248;SDS011;6187;50.778;6.142;2023-07-30T01:21:46;2.63;;;1.77;;
12248;SDS011;6187;50.778;6.142;2023-07-30T01:24:15;2.13;;;1.93;;
12248;SDS011;6187;50.778;6.142;2023-07-30T01:26:44;2.53;;;1.70;;
12248;SDS011;6187;50.778;6.142;2023-07-30T01:29:22;1.93;;;1.70;;
12248;SDS011;6187;50.778;6.142;2023-07-30T01:31:52;1.77;;;1.67;;
12248;SDS011;6187;50.778;6.142;2023-07-30T01:34:23;3.23;;;2.17;;
12248;SDS011;6187;50.778;6.142;2023-07-30T01:36:54;2.70;;;1.77;;
12248;SDS011;6187;50.778;6.142;2023-07-30T01:39:23;3.20;;;2.03;;
12248;SDS011;6187;50.778;6.142;2023-07-30T01:41:52;3.53;;;2.03;;
12248;SDS011;6187;50.778;6.142;2023-07-30T01:44:21;2.20;;;1.80;;
12248;SDS011;6187;50.778;6.142;2023-07-30T01:46:50;2.67;;;1.70;;
12248;SDS011;6187;50.778;6.142;2023-07-30T01:49:18;2.40;;;1.63;;
12248;SDS011;6187;50.778;6.142;2023-07-30T01:51:47;1.90;;;1.70;;
12248;SDS011;6187;50.778;6.142;2023-07-30T01:54:17;2.13;;;1.80;;
12248;SDS011;6187;50.778;6.142;2023-07-30T01:56:46;2.03;;;1.83;;
12248;SDS011;6187;50.778;6.142;2023-07-30T01:59:15;2.83;;;1.90;;
12248;SDS011;6187;50.778;6.142;2023-07-30T02:01:43;2.57;;;1.90;;
12248;SDS011;6187;50.778;6.142;2023-07-30T02:04:12;2.33;;;1.80;;
12248;SDS011;6187;50.778;6.142;2023-07-30T02:06:41;2.73;;;1.70;;
12248;SDS011;6187;50.778;6.142;2023-07-30T02:09:09;3.20;;;1.67;;
12248;SDS011;6187;50.778;6.142;2023-07-30T02:11:39;2.57;;;1.93;;
12248;SDS011;6187;50.778;6.142;2023-07-30T02:14:09;2.20;;;1.83;;
12248;SDS011;6187;50.778;6.142;2023-07-30T02:16:37;2.17;;;1.83;;
12248;SDS011;6187;50.778;6.142;2023-07-30T02:19:06;3.13;;;1.47;;
12248;SDS011;6187;50.778;6.142;2023-07-30T02:21:34;2.80;;;1.63;;
12248;SDS011;6187;50.778;6.142;2023-07-30T02:24:05;3.97;;;2.23;;
12248;SDS011;6187;50.778;6.142;2023-07-30T02:26:36;2.20;;;1.83;;
12248;SDS011;6187;50.778;6.142;2023-07-30T02:29:06;2.97;;;1.80;;
12248;SDS011;6187;50.778;6.142;2023-07-30T02:31:35;2.93;;;1.57;;
12248;SDS011;6187;50.778;6.142;2023-07-30T02:34:04;1.80;;;1.70;;
12248;SDS011;6187;50.778;6.142;2023-07-30T02:36:34;1.80;;;1.70;;
12248;SDS011;6187;50.778;6.142;2023-07-30T02:39:02;2.80;;;2.50;;
12248;SDS011;6187;50.778;6.142;2023-07-30T02:41:31;1.90;;;1.60;;
12248;SDS011;6187;50.778;6.142;2023-07-30T02:44:00;2.20;;;1.50;;
12248;SDS011;6187;50.778;6.142;2023-07-30T02:46:30;3.83;;;1.80;;
12248;SDS011;6187;50.778;6.142;2023-07-30T02:48:58;3.73;;;1.60;;
12248;SDS011;6187;50.778;6.142;2023-07-30T02:51:27;3.27;;;1.90;;
12248;SDS011;6187;50.778;6.142;2023-07-30T02:53:56;1.80;;;1.70;;
12248;SDS011;6187;50.778;6.142;2023-07-30T02:56:26;2.80;;;1.73;;
12248;SDS011;6187;50.778;6.142;2023-07-30T02:58:55;1.80;;;1.60;;
12248;SDS011;6187;50.778;6.142;2023-07-30T03:01:23;3.43;;;2.07;;
12248;SDS011;6187;50.778;6.142;2023-07-30T03:03:54;2.63;;;1.83;;
12248;SDS011;6187;50.778;6.142;2023-07-30T03:06:22;2.53;;;1.50;;
12248;SDS011;6187;50.778;6.142;2023-07-30T03:08:51;3.17;;;1.60;;
12248;SDS011;6187;50.778;6.142;2023-07-30T03:11:20;2.53;;;1.53;;
12248;SDS011;6187;50.778;6.142;2023-07-30T03:13:48;2.90;;;1.47;;
12248;SDS011;6187;50.778;6.142;2023-07-30T03:16:17;3.30;;;1.50;;
12248;SDS011;6187;50.778;6.142;2023-07-30T03:18:45;1.93;;;1.60;;
12248;SDS011;6187;50.778;6.142;2023-07-30T03:21:15;1.67;;;1.40;;
12248;SDS011;6187;50.778;6.142;2023-07-30T03:23:44;2.50;;;1.60;;
12248;SDS011;6187;50.778;6.142;2023-07-30T03:26:14;4.23;;;1.53;;
12248;SDS011;6187;50.778;6.142;2023-07-30T03:28:43;1.97;;;1.37;;
12248;SDS011;6187;50.778;6.142;2023-07-30T03:31:12;2.03;;;1.40;;
12248;SDS011;6187;50.778;6.142;2023-07-30T03:33:40;5.07;;;1.87;;
12248;SDS011;6187;50.778;6.142;2023-07-30T03:36:10;2.53;;;1.33;;
12248;SDS011;6187;50.778;6.142;2023-07-30T03:38:40;3.63;;;1.60;;
12248;SDS011;6187;50.778;6.142;2023-07-30T03:41:09;1.50;;;1.37;;
12248;SDS011;6187;50.778;6.142;2023-07-30T03:43:38;3.90;;;1.47;;
12248;SDS011;6187;50.778;6.142;2023-07-30T03:46:06;1.97;;;1.40;;
12248;SDS011;6187;50.778;6.142;2023-07-30T03:48:35;1.30;;;1.07;;
12248;SDS011;6187;50.778;6.142;2023-07-30T03:51:05;2.67;;;1.53;;
12248;SDS011;6187;50.778;6.142;2023-07-30T03:53:34;1.43;;;1.30;;
12248;SDS011;6187;50.778;6.142;2023-07-30T03:56:04;2.13;;;1.53;;
12248;SDS011;6187;50.778;6.142;2023-07-30T03:58:32;2.07;;;1.50;;
12248;SDS011;6187;50.778;6.142;2023-07-30T04:01:02;2.33;;;1.40;;
12248;SDS011;6187;50.778;6.142;2023-07-30T04:03:31;2.07;;;1.33;;
12248;SDS011;6187;50.778;6.142;2023-07-30T04:05:59;1.77;;;1.40;;
12248;SDS011;6187;50.778;6.142;2023-07-30T04:08:28;1.50;;;1.40;;
12248;SDS011;6187;50.778;6.142;2023-07-30T04:10:57;3.03;;;1.53;;
12248;SDS011;6187;50.778;6.142;2023-07-30T04:13:26;2.47;;;1.33;;
12248;SDS011;6187;50.778;6.142;2023-07-30T04:15:55;2.80;;;1.50;;
12248;SDS011;6187;50.778;6.142;2023-07-30T04:18:24;2.57;;;1.70;;
12248;SDS011;6187;50.778;6.142;2023-07-30T04:20:53;3.93;;;2.03;;
12248;SDS011;6187;50.778;6.142;2023-07-30T04:23:22;3.17;;;1.40;;
12248;SDS011;6187;50.778;6.142;2023-07-30T04:25:51;2.27;;;1.40;;
12248;SDS011;6187;50.778;6.142;2023-07-30T04:28:20;1.50;;;1.17;;
12248;SDS011;6187;50.778;6.142;2023-07-30T04:30:50;4.37;;;1.47;;
12248;SDS011;6187;50.778;6.142;2023-07-30T04:33:18;2.47;;;1.50;;
12248;SDS011;6187;50.778;6.142;2023-07-30T04:35:47;2.17;;;1.50;;
12248;SDS011;6187;50.778;6.142;2023-07-30T04:38:16;2.47;;;1.60;;
12248;SDS011;6187;50.778;6.142;2023-07-30T04:40:44;2.80;;;1.43;;
12248;SDS011;6187;50.778;6.142;2023-07-30T04:43:13;1.43;;;1.33;;
12248;SDS011;6187;50.778;6.142;2023-07-30T04:45:42;2.17;;;1.53;;
12248;SDS011;6187;50.778;6.142;2023-07-30T04:48:11;4.10;;;1.67;;
12248;SDS011;6187;50.778;6.142;2023-07-30T04:50:40;2.40;;;1.30;;
12248;SDS011;6187;50.778;6.142;2023-07-30T04:53:09;3.03;;;1.37;;
12248;SDS011;6187;50.778;6.142;2023-07-30T04:55:38;1.53;;;1.43;;
12248;SDS011;6187;50.778;6.142;2023-07-30T04:58:06;2.93;;;1.07;;
12248;SDS011;6187;50.778;6.142;2023-07-30T05:00:35;3.30;;;1.37;;
12248;SDS011;6187;50.778;6.142;2023-07-30T05:03:03;3.30;;;1.40;;
12248;SDS011;6187;50.778;6.142;2023-07-30T05:05:33;2.17;;;1.50;;
12248;SDS011;6187;50.778;6.142;2023-07-30T05:08:02;3.30;;;1.50;;
12248;SDS011;6187;50.778;6.142;2023-07-30T05:10:31;1.97;;;1.27;;
12248;SDS011;6187;50.778;6.142;2023-07-30T05:12:59;2.43;;;1.27;;
12248;SDS011;6187;50.778;6.142;2023-07-30T05:15:28;2.23;;;1.20;;
12248;SDS011;6187;50.778;6.142;2023-07-30T05:17:56;1.07;;;0.87;;
12248;SDS011;6187;50.778;6.142;2023-07-30T05:20:25;1.53;;;1.13;;
12248;SDS011;6187;50.778;6.142;2023-07-30T05:22:55;1.43;;;1.00;;
12248;SDS011;6187;50.778;6.142;2023-07-30T05:25:24;2.37;;;1.33;;
12248;SDS011;6187;50.778;6.142;2023-07-30T05:27:52;1.37;;;1.00;;
12248;SDS011;6187;50.778;6.142;2023-07-30T05:30:21;1.83;;;1.13;;
12248;SDS011;6187;50.778;6.142;2023-07-30T05:32:50;1.33;;;1.00;;
12248;SDS011;6187;50.778;6.142;2023-07-30T05:35:18;2.10;;;1.30;;
12248;SDS011;6187;50.778;6.142;2023-07-30T05:37:47;1.90;;;1.03;;
12248;SDS011;6187;50.778;6.142;2023-07-30T05:40:17;2.37;;;1.03;;
12248;SDS011;6187;50.778;6.142;2023-07-30T05:42:46;2.17;;;0.97;;
12248;SDS011;6187;50.778;6.142;2023-07-30T05:45:15;1.00;;;0.90;;
12248;SDS011;6187;50.778;6.142;2023-07-30T05:47:45;0.77;;;0.77;;
12248;SDS011;6187;50.778;6.142;2023-07-30T05:50:13;2.40;;;1.20;;
12248;SDS011;6187;50.778;6.142;2023-07-30T05:52:42;1.83;;;1.00;;
12248;SDS011;6187;50.778;6.142;2023-07-30T05:55:11;0.90;;;0.70;;
12248;SDS011;6187;50.778;6.142;2023-07-30T05:57:41;0.80;;;0.77;;
12248;SDS011;6187;50.778;6.142;2023-07-30T06:00:09;1.47;;;1.00;;
12248;SDS011;6187;50.778;6.142;2023-07-30T06:02:38;1.90;;;0.90;;
12248;SDS011;6187;50.778;6.142;2023-07-30T06:05:07;1.47;;;1.00;;
12248;SDS011;6187;50.778;6.142;2023-07-30T06:07:36;1.47;;;1.00;;
12248;SDS011;6187;50.778;6.142;2023-07-30T06:10:05;1.37;;;0.83;;
12248;SDS011;6187;50.778;6.142;2023-07-30T06:12:33;2.30;;;0.90;;
12248;SDS011;6187;50.778;6.142;2023-07-30T06:15:05;1.80;;;1.07;;
12248;SDS011;6187;50.778;6.142;2023-07-30T06:17:33;2.70;;;1.10;;
12248;SDS011;6187;50.778;6.142;2023-07-30T06:20:02;2.07;;;1.17;;
12248;SDS011;6187;50.778;6.142;2023-07-30T06:22:31;1.30;;;0.90;;
12248;SDS011;6187;50.778;6.142;2023-07-30T06:25:00;1.10;;;0.93;;
12248;SDS011;6187;50.778;6.142;2023-07-30T06:27:29;1.70;;;1.00;;
12248;SDS011;6187;50.778;6.142;2023-07-30T06:29:57;3.20;;;1.20;;
12248;SDS011;6187;50.778;6.142;2023-07-30T06:32:27;2.03;;;1.20;;
12248;SDS011;6187;50.778;6.142;2023-07-30T06:34:56;2.03;;;1.30;;
12248;SDS011;6187;50.778;6.142;2023-07-30T06:37:24;2.97;;;1.20;;
12248;SDS011;6187;50.778;6.142;2023-07-30T06:39:53;1.30;;;1.20;;
12248;SDS011;6187;50.778;6.142;2023-07-30T06:42:22;1.80;;;1.30;;
12248;SDS011;6187;50.778;6.142;2023-07-30T06:44:50;2.00;;;1.03;;
12248;SDS011;6187;50.778;6.142;2023-07-30T06:47:19;2.57;;;1.20;;
12248;SDS011;6187;50.778;6.142;2023-07-30T06:49:49;2.63;;;1.40;;
12248;SDS011;6187;50.778;6.142;2023-07-30T06:52:17;1.93;;;1.20;;
12248;SDS011;6187;50.778;6.142;2023-07-30T06:54:46;3.30;;;1.33;;
12248;SDS011;6187;50.778;6.142;2023-07-30T06:57:15;1.47;;;1.13;;
12248;SDS011;6187;50.778;6.142;2023-07-30T06:59:44;2.10;;;1.40;;
12248;SDS011;6187;50.778;6.142;2023-07-30T07:02:12;2.77;;;1.47;;
12248;SDS011;6187;50.778;6.142;2023-07-30T07:04:41;2.90;;;1.60;;
12248;SDS011;6187;50.778;6.142;2023-07-30T07:07:11;3.20;;;1.43;;
12248;SDS011;6187;50.778;6.142;2023-07-30T07:09:40;1.77;;;1.57;;
12248;SDS011;6187;50.778;6.142;2023-07-30T07:12:08;3.20;;;1.53;;
12248;SDS011;6187;50.778;6.142;2023-07-30T07:14:37;3.17;;;1.63;;
12248;SDS011;6187;50.778;6.142;2023-07-30T07:17:06;2.53;;;1.60;;
12248;SDS011;6187;50.778;6.142;2023-07-30T07:19:34;3.37;;;1.40;;
12248;SDS011;6187;50.778;6.142;2023-07-30T07:22:03;3.13;;;1.70;;
12248;SDS011;6187;50.778;6.142;2023-07-30T07:24:33;3.70;;;1.63;;
12248;SDS011;6187;50.778;6.142;2023-07-30T07:27:02;2.07;;;1.40;;
12248;SDS011;6187;50.778;6.142;2023-07-30T07:29:38;2.36;;;1.34;;
12248;SDS011;6187;50.778;6.142;2023-07-30T07:32:07;2.17;;;1.30;;
12248;SDS011;6187;50.778;6.142;2023-07-30T07:34:36;3.23;;;1.60;;
12248;SDS011;6187;50.778;6.142;2023-07-30T07:37:05;3.03;;;1.63;;
12248;SDS011;6187;50.778;6.142;2023-07-30T07:39:34;8.00;;;2.27;;
12248;SDS011;6187;50.778;6.142;2023-07-30T07:42:03;3.80;;;1.63;;
12248;SDS011;6187;50.778;6.142;2023-07-30T07:44:32;2.20;;;1.67;;
12248;SDS011;6187;50.778;6.142;2023-07-30T07:47:00;3.80;;;1.40;;
12248;SDS011;6187;50.778;6.142;2023-07-30T07:49:29;2.97;;;1.30;;
12248;SDS011;6187;50.778;6.142;2023-07-30T07:51:58;3.83;;;1.63;;
12248;SDS011;6187;50.778;6.142;2023-07-30T07:54:26;3.47;;;1.67;;
12248;SDS011;6187;50.778;6.142;2023-07-30T07:56:56;3.27;;;1.53;;
12248;SDS011;6187;50.778;6.142;2023-07-30T07:59:25;4.30;;;1.53;;
12248;SDS011;6187;50.778;6.142;2023-07-30T08:01:54;2.73;;;1.50;;
12248;SDS011;6187;50.778;6.142;2023-07-30T08:04:23;2.20;;;1.30;;
12248;SDS011;6187;50.778;6.142;2023-07-30T08:06:51;3.33;;;1.43;;
12248;SDS011;6187;50.778;6.142;2023-07-30T08:09:20;4.27;;;1.50;;
12248;SDS011;6187;50.778;6.142;2023-07-30T08:11:49;3.73;;;1.50;;
12248;SDS011;6187;50.778;6.142;2023-07-30T08:14:19;3.13;;;1.33;;
12248;SDS011;6187;50.778;6.142;2023-07-30T08:16:56;3.74;;;1.58;;
12248;SDS011;6187;50.778;6.142;2023-07-30T08:19:25;4.23;;;1.57;;
12248;SDS011;6187;50.778;6.142;2023-07-30T08:21:53;2.67;;;1.50;;
12248;SDS011;6187;50.778;6.142;2023-07-30T08:24:23;2.63;;;1.57;;
12248;SDS011;6187;50.778;6.142;2023-07-30T08:26:51;2.80;;;1.60;;
12248;SDS011;6187;50.778;6.142;2023-07-30T08:29:21;5.63;;;2.43;;
12248;SDS011;6187;50.778;6.142;2023-07-30T08:31:50;3.17;;;1.60;;
12248;SDS011;6187;50.778;6.142;2023-07-30T08:34:19;1.90;;;1.20;;
12248;SDS011;6187;50.778;6.142;2023-07-30T08:36:49;3.90;;;1.37;;
12248;SDS011;6187;50.778;6.142;2023-07-30T08:39:18;3.03;;;1.30;;
12248;SDS011;6187;50.778;6.142;2023-07-30T08:41:47;2.93;;;1.27;;
12248;SDS011;6187;50.778;6.142;2023-07-30T08:44:15;3.67;;;1.70;;
12248;SDS011;6187;50.778;6.142;2023-07-30T08:46:46;4.00;;;1.50;;
12248;SDS011;6187;50.778;6.142;2023-07-30T08:49:14;3.77;;;1.43;;
12248;SDS011;6187;50.778;6.142;2023-07-30T08:51:43;2.47;;;1.40;;
12248;SDS011;6187;50.778;6.142;2023-07-30T08:54:12;3.33;;;1.57;;
12248;SDS011;6187;50.778;6.142;2023-07-30T08:56:42;5.17;;;1.90;;
12248;SDS011;6187;50.778;6.142;2023-07-30T08:59:11;2.53;;;1.37;;
12248;SDS011;6187;50.778;6.142;2023-07-30T09:01:40;3.87;;;1.63;;
12248;SDS011;6187;50.778;6.142;2023-07-30T09:04:11;3.77;;;1.60;;
12248;SDS011;6187;50.778;6.142;2023-07-30T09:06:40;3.50;;;1.90;;
12248;SDS011;6187;50.778;6.142;2023-07-30T09:09:08;2.40;;;1.67;;
12248;SDS011;6187;50.778;6.142;2023-07-30T09:11:38;2.63;;;1.43;;
12248;SDS011;6187;50.778;6.142;2023-07-30T09:14:06;3.73;;;1.40;;
12248;SDS011;6187;50.778;6.142;2023-07-30T09:16:36;3.10;;;1.60;;
12248;SDS011;6187;50.778;6.142;2023-07-30T09:19:05;3.00;;;1.20;;
12248;SDS011;6187;50.778;6.142;2023-07-30T09:21:36;2.60;;;1.20;;
12248;SDS011;6187;50.778;6.142;2023-07-30T09:24:05;4.60;;;1.70;;
12248;SDS011;6187;50.778;6.142;2023-07-30T09:26:41;2.87;;;1.50;;
12248;SDS011;6187;50.778;6.142;2023-07-30T09:29:10;3.20;;;1.40;;
12248;SDS011;6187;50.778;6.142;2023-07-30T09:31:48;2.83;;;1.30;;
12248;SDS011;6187;50.778;6.142;2023-07-30T09:34:21;2.43;;;1.37;;
12248;SDS011;6187;50.778;6.142;2023-07-30T09:36:52;3.10;;;1.70;;
12248;SDS011;6187;50.778;6.142;2023-07-30T09:39:22;3.77;;;1.57;;
12248;SDS011;6187;50.778;6.142;2023-07-30T09:41:51;3.13;;;1.50;;
12248;SDS011;6187;50.778;6.142;2023-07-30T09:44:20;2.10;;;1.43;;
12248;SDS011;6187;50.778;6.142;2023-07-30T09:46:49;2.33;;;1.23;;
12248;SDS011;6187;50.778;6.142;2023-07-30T09:49:18;3.03;;;1.43;;
12248;SDS011;6187;50.778;6.142;2023-07-30T09:51:48;2.97;;;1.20;;
12248;SDS011;6187;50.778;6.142;2023-07-30T09:54:18;2.23;;;1.20;;
12248;SDS011;6187;50.778;6.142;2023-07-30T09:56:47;2.67;;;1.10;;
12248;SDS011;6187;50.778;6.142;2023-07-30T09:59:16;2.07;;;1.20;;
12248;SDS011;6187;50.778;6.142;2023-07-30T10:01:45;3.43;;;1.37;;
12248;SDS011;6187;50.778;6.142;2023-07-30T10:04:18;2.10;;;1.20;;
12248;SDS011;6187;50.778;6.142;2023-07-30T10:06:49;1.07;;;0.90;;
12248;SDS011;6187;50.778;6.142;2023-07-30T10:09:20;2.67;;;1.30;;
12248;SDS011;6187;50.778;6.142;2023-07-30T10:11:51;1.53;;;0.80;;
12248;SDS011;6187;50.778;6.142;2023-07-30T10:14:21;3.23;;;1.20;;
12248;SDS011;6187;50.778;6.142;2023-07-30T10:16:50;1.63;;;1.00;;
12248;SDS011;6187;50.778;6.142;2023-07-30T10:19:22;2.63;;;1.20;;
12248;SDS011;6187;50.778;6.142;2023-07-30T10:21:50;2.37;;;1.33;;
12248;SDS011;6187;50.778;6.142;2023-07-30T10:24:21;2.30;;;0.90;;
12248;SDS011;6187;50.778;6.142;2023-07-30T10:26:49;2.33;;;1.30;;
12248;SDS011;6187;50.778;6.142;2023-07-30T10:29:18;2.63;;;1.20;;
12248;SDS011;6187;50.778;6.142;2023-07-30T10:31:51;1.47;;;1.00;;
12248;SDS011;6187;50.778;6.142;2023-07-30T10:34:20;1.20;;;0.90;;
12248;SDS011;6187;50.778;6.142;2023-07-30T10:36:49;1.63;;;0.87;;
12248;SDS011;6187;50.778;6.142;2023-07-30T10:39:19;1.83;;;1.00;;
12248;SDS011;6187;50.778;6.142;2023-07-30T10:41:50;2.53;;;1.20;;
12248;SDS011;6187;50.778;6.142;2023-07-30T10:44:21;1.40;;;1.10;;
12248;SDS011;6187;50.778;6.142;2023-07-30T10:46:51;2.27;;;1.00;;
12248;SDS011;6187;50.778;6.142;2023-07-30T10:49:19;2.77;;;1.00;;
12248;SDS011;6187;50.778;6.142;2023-07-30T10:51:48;1.93;;;1.17;;
12248;SDS011;6187;50.778;6.142;2023-07-30T10:54:17;2.27;;;1.53;;
12248;SDS011;6187;50.778;6.142;2023-07-30T10:56:46;2.10;;;1.00;;
12248;SDS011;6187;50.778;6.142;2023-07-30T10:59:16;2.30;;;1.30;;
12248;SDS011;6187;50.778;6.142;2023-07-30T11:01:46;3.00;;;1.17;;
12248;SDS011;6187;50.778;6.142;2023-07-30T11:04:15;2.40;;;1.03;;
12248;SDS011;6187;50.778;6.142;2023-07-30T11:06:45;2.50;;;1.00;;
12248;SDS011;6187;50.778;6.142;2023-07-30T11:09:17;1.93;;;1.03;;
12248;SDS011;6187;50.778;6.142;2023-07-30T11:11:47;2.03;;;1.10;;
12248;SDS011;6187;50.778;6.142;2023-07-30T11:14:17;1.00;;;0.90;;
12248;SDS011;6187;50.778;6.142;2023-07-30T11:16:49;2.10;;;1.03;;
12248;SDS011;6187;50.778;6.142;2023-07-30T11:19:18;1.43;;;1.10;;
12248;SDS011;6187;50.778;6.142;2023-07-30T11:21:48;2.50;;;1.20;;
12248;SDS011;6187;50.778;6.142;2023-07-30T11:24:20;2.30;;;1.23;;
12248;SDS011;6187;50.778;6.142;2023-07-30T11:26:57;2.27;;;1.47;;
12248;SDS011;6187;50.778;6.142;2023-07-30T11:29:27;3.33;;;1.10;;
12248;SDS011;6187;50.778;6.142;2023-07-30T11:31:57;3.47;;;1.10;;
12248;SDS011;6187;50.778;6.142;2023-07-30T11:34:26;2.27;;;1.00;;
12248;SDS011;6187;50.778;6.142;2023-07-30T11:36:55;1.43;;;0.80;;
12248;SDS011;6187;50.778;6.142;2023-07-30T11:39:24;1.90;;;1.33;;
12248;SDS011;6187;50.778;6.142;2023-07-30T11:41:54;2.83;;;1.17;;
12248;SDS011;6187;50.778;6.142;2023-07-30T11:44:31;2.17;;;1.30;;
12248;SDS011;6187;50.778;6.142;2023-07-30T11:47:00;1.90;;;1.33;;
12248;SDS011;6187;50.778;6.142;2023-07-30T11:49:30;1.97;;;1.20;;
12248;SDS011;6187;50.778;6.142;2023-07-30T11:52:05;3.77;;;1.30;;
12248;SDS011;6187;50.778;6.142;2023-07-30T11:54:34;1.67;;;1.10;;
12248;SDS011;6187;50.778;6.142;2023-07-30T11:57:03;1.60;;;1.10;;
12248;SDS011;6187;50.778;6.142;2023-07-30T11:59:33;2.13;;;1.30;;
12248;SDS011;6187;50.778;6.142;2023-07-30T12:02:03;3.80;;;1.47;;
12248;SDS011;6187;50.778;6.142;2023-07-30T12:04:42;3.30;;;1.60;;
12248;SDS011;6187;50.778;6.142;2023-07-30T12:07:21;1.50;;;1.30;;
12248;SDS011;6187;50.778;6.142;2023-07-30T12:09:50;1.47;;;1.03;;
12248;SDS011;6187;50.778;6.142;2023-07-30T12:12:19;1.43;;;1.10;;
12248;SDS011;6187;50.778;6.142;2023-07-30T12:14:54;2.77;;;1.40;;
12248;SDS011;6187;50.778;6.142;2023-07-30T12:17:23;3.13;;;1.47;;
12248;SDS011;6187;50.778;6.142;2023-07-30T12:19:51;2.17;;;1.10;;
12248;SDS011;6187;50.778;6.142;2023-07-30T12:22:20;1.23;;;0.93;;
12248;SDS011;6187;50.778;6.142;2023-07-30T12:24:49;3.20;;;1.30;;
12248;SDS011;6187;50.778;6.142;2023-07-30T12:27:17;2.50;;;1.20;;
12248;SDS011;6187;50.778;6.142;2023-07-30T12:29:46;2.60;;;1.20;;
12248;SDS011;6187;50.778;6.142;2023-07-30T12:32:16;1.60;;;1.07;;
12248;SDS011;6187;50.778;6.142;2023-07-30T12:34:45;2.17;;;1.10;;
12248;SDS011;6187;50.778;6.142;2023-07-30T12:37:14;2.10;;;1.30;;
12248;SDS011;6187;50.778;6.142;2023-07-30T12:39:42;1.67;;;1.03;;
12248;SDS011;6187;50.778;6.142;2023-07-30T12:42:11;2.20;;;1.30;;
12248;SDS011;6187;50.778;6.142;2023-07-30T12:44:40;2.73;;;1.20;;
12248;SDS011;6187;50.778;6.142;2023-07-30T12:47:08;3.73;;;1.10;;
12248;SDS011;6187;50.778;6.142;2023-07-30T12:49:38;2.07;;;1.27;;
12248;SDS011;6187;50.778;6.142;2023-07-30T12:52:07;1.93;;;1.40;;
12248;SDS011;6187;50.778;6.142;2023-07-30T12:54:36;1.83;;;1.30;;
12248;SDS011;6187;50.778;6.142;2023-07-30T12:57:05;1.17;;;0.90;;
12248;SDS011;6187;50.778;6.142;2023-07-30T12:59:33;2.23;;;1.40;;
12248;SDS011;6187;50.778;6.142;2023-07-30T13:02:02;2.47;;;1.27;;
12248;SDS011;6187;50.778;6.142;2023-07-30T13:04:31;1.87;;;1.33;;
12248;SDS011;6187;50.778;6.142;2023-07-30T13:07:01;1.93;;;0.97;;
12248;SDS011;6187;50.778;6.142;2023-07-30T13:09:30;1.80;;;0.90;;
12248;SDS011;6187;50.778;6.142;2023-07-30T13:11:59;1.53;;;0.80;;
12248;SDS011;6187;50.778;6.142;2023-07-30T13:14:27;1.47;;;0.90;;
12248;SDS011;6187;50.778;6.142;2023-07-30T13:16:56;1.63;;;0.80;;
12248;SDS011;6187;50.778;6.142;2023-07-30T13:19:24;2.60;;;0.97;;
12248;SDS011;6187;50.778;6.142;2023-07-30T13:21:54;4.20;;;1.00;;
12248;SDS011;6187;50.778;6.142;2023-07-30T13:24:24;2.03;;;0.80;;
12248;SDS011;6187;50.778;6.142;2023-07-30T13:26:56;2.17;;;1.00;;
12248;SDS011;6187;50.778;6.142;2023-07-30T13:29:24;1.23;;;0.77;;
12248;SDS011;6187;50.778;6.142;2023-07-30T13:31:53;1.43;;;1.10;;
12248;SDS011;6187;50.778;6.142;2023-07-30T13:34:22;3.87;;;1.47;;
12248;SDS011;6187;50.778;6.142;2023-07-30T13:36:50;3.63;;;1.10;;
12248;SDS011;6187;50.778;6.142;2023-07-30T13:39:19;1.70;;;0.97;;
12248;SDS011;6187;50.778;6.142;2023-07-30T13:41:49;1.43;;;1.00;;
12248;SDS011;6187;50.778;6.142;2023-07-30T13:44:17;1.47;;;1.20;;
12248;SDS011;6187;50.778;6.142;2023-07-30T13:46:46;2.17;;;1.20;;
12248;SDS011;6187;50.778;6.142;2023-07-30T13:49:15;2.57;;;1.03;;
12248;SDS011;6187;50.778;6.142;2023-07-30T13:51:43;1.93;;;1.10;;
12248;SDS011;6187;50.778;6.142;2023-07-30T13:54:12;1.40;;;1.23;;
12248;SDS011;6187;50.778;6.142;2023-07-30T13:56:40;2.07;;;0.93;;
12248;SDS011;6187;50.778;6.142;2023-07-30T13:59:10;1.57;;;1.30;;
12248;SDS011;6187;50.778;6.142;2023-07-30T14:01:39;1.73;;;1.00;;
12248;SDS011;6187;50.778;6.142;2023-07-30T14:04:08;2.47;;;1.20;;
12248;SDS011;6187;50.778;6.142;2023-07-30T14:06:36;2.93;;;1.60;;
12248;SDS011;6187;50.778;6.142;2023-07-30T14:09:05;2.10;;;1.00;;
12248;SDS011;6187;50.778;6.142;2023-07-30T14:11:34;1.50;;;1.00;;
12248;SDS011;6187;50.778;6.142;2023-07-30T14:14:04;4.77;;;1.10;;
12248;SDS011;6187;50.778;6.142;2023-07-30T14:16:34;2.53;;;1.00;;
12248;SDS011;6187;50.778;6.142;2023-07-30T14:19:03;2.07;;;1.03;;
12248;SDS011;6187;50.778;6.142;2023-07-30T14:21:31;2.33;;;1.00;;
12248;SDS011;6187;50.778;6.142;2023-07-30T14:24:00;2.37;;;1.30;;
12248;SDS011;6187;50.778;6.142;2023-07-30T14:26:29;1.23;;;1.10;;
12248;SDS011;6187;50.778;6.142;2023-07-30T14:28:57;1.30;;;1.00;;
12248;SDS011;6187;50.778;6.142;2023-07-30T14:31:26;2.03;;;1.00;;
12248;SDS011;6187;50.778;6.142;2023-07-30T14:33:56;1.77;;;1.10;;
12248;SDS011;6187;50.778;6.142;2023-07-30T14:36:25;1.97;;;1.20;;
12248;SDS011;6187;50.778;6.142;2023-07-30T14:38:54;1.77;;;0.90;;
12248;SDS011;6187;50.778;6.142;2023-07-30T14:41:22;2.63;;;1.20;;
12248;SDS011;6187;50.778;6.142;2023-07-30T14:43:51;2.17;;;1.27;;
12248;SDS011;6187;50.778;6.142;2023-07-30T14:46:20;1.77;;;1.10;;
12248;SDS011;6187;50.778;6.142;2023-07-30T14:48:49;2.50;;;1.10;;
12248;SDS011;6187;50.778;6.142;2023-07-30T14:51:19;2.23;;;1.50;;
12248;SDS011;6187;50.778;6.142;2023-07-30T14:53:47;2.00;;;1.10;;
12248;SDS011;6187;50.778;6.142;2023-07-30T14:56:16;2.07;;;1.03;;
12248;SDS011;6187;50.778;6.142;2023-07-30T14:58:45;3.17;;;1.10;;
12248;SDS011;6187;50.778;6.142;2023-07-30T15:01:13;1.73;;;1.10;;
12248;SDS011;6187;50.778;6.142;2023-07-30T15:03:42;1.87;;;1.27;;
12248;SDS011;6187;50.778;6.142;2023-07-30T15:06:11;1.30;;;0.90;;
12248;SDS011;6187;50.778;6.142;2023-07-30T15:08:41;3.33;;;1.37;;
12248;SDS011;6187;50.778;6.142;2023-07-30T15:11:09;2.33;;;1.33;;
12248;SDS011;6187;50.778;6.142;2023-07-30T15:13:40;2.47;;;1.10;;